Virginiborg — PBDL — position and weather

sailwx.info

Track history (hours):
 
Tides and Currents Weather Stations Pressure Air Temp Water Temp Dewpoint Dewpoint Depression Visibility Wind Speed Wind Dir Waves Ship Positions

Virginiborg

Last reported at 2016-Dec-02 14:12 UTC. Time now 2016-Dec-06 19:55 UTC.
Position N 43°12' W 079°12'.

Length 132 m; draft 6.9 m.

Type: Cargo ship. MMSI: 244632000.

Date/timePositionNaut miles runAvg speedWind from/ knotsBaromVisibWave heightAir tempDewpointWater temp
2016-Dec-02 14:12N 43°12' W 079°12'1 1.4
2016-Dec-02 13:33N 43°13' W 079°13'3 2.8
2016-Dec-02 12:33N 43°16' W 079°14'247 7.5
2016-Dec-01 03:32N 45°14' W 074°11'8 8.0
2016-Dec-01 02:31N 45°14' W 073°59'5 4.9
2016-Dec-01 01:33N 45°18' W 073°56'1 1.2
2016-Dec-01 00:33N 45°19' W 073°55'0 0.1
2016-Nov-30 22:29N 45°20' W 073°55'0 0.1
2016-Nov-30 21:33N 45°20' W 073°55'7 6.9
2016-Nov-30 20:33N 45°24' W 073°47'8 8.0
2016-Nov-30 19:33N 45°24' W 073°36'3 3.1
2016-Nov-30 18:33N 45°25' W 073°31'5 4.2
2016-Nov-30 17:17N 45°30' W 073°31'  
Track history (hours):
 
Tides and Currents Weather Stations Pressure Air Temp Water Temp Dewpoint Dewpoint Depression Visibility Wind Speed Wind Dir Waves Ship Positions

Virginiborg

Last reported at 2016-Dec-02 14:12 UTC. Time now 2016-Dec-06 19:55 UTC.
Position N 43°12' W 079°12'.

Length 132 m; draft 6.9 m.

Type: Cargo ship. MMSI: 244632000.

Date/timePositionNaut miles runAvg speedWind from/ knotsBaromVisibWave heightAir tempDewpointWater temp
2016-Dec-02 14:12N 43°12' W 079°12'1 1.4
2016-Dec-02 13:33N 43°13' W 079°13'3 2.8
2016-Dec-02 12:33N 43°16' W 079°14'247 7.5
2016-Dec-01 03:32N 45°14' W 074°11'8 8.0
2016-Dec-01 02:31N 45°14' W 073°59'5 4.9
2016-Dec-01 01:33N 45°18' W 073°56'1 1.2
2016-Dec-01 00:33N 45°19' W 073°55'0 0.1
2016-Nov-30 22:29N 45°20' W 073°55'0 0.1
2016-Nov-30 21:33N 45°20' W 073°55'7 6.9
2016-Nov-30 20:33N 45°24' W 073°47'8 8.0
2016-Nov-30 19:33N 45°24' W 073°36'3 3.1
2016-Nov-30 18:33N 45°25' W 073°31'5 4.2
2016-Nov-30 17:17N 45°30' W 073°31'  

Dump ship's entire track history